Time;durP1;ratioP1;P1;durP2;ratioP2;P2;SDS_P1;SDS_P2;PMS_P1;PMS_P2;Temp;Humidity;BMP_temperature;BMP_pressure;BME280_temperature;BME280_humidity;BME280_pressure;Samples;Min_cycle;Max_cycle;Signal;HPM_P1;HPM_P2
2022/11/15 00:02:22;;;;;;;;;0.00;0.00;;;;;;;;4769364;30;8843;-95
2022/11/15 00:04:47;;;;;;;;;0.00;0.00;;;;;;;;4760752;30;8857;-94
2022/11/15 00:07:12;;;;;;;;;0.00;0.00;;;;;;;;4750993;30;8960;-93
2022/11/15 00:09:38;;;;;;;;;0.00;0.00;;;;;;;;4751528;30;8956;-92
2022/11/15 00:12:03;;;;;;;;;0.00;0.00;;;;;;;;4764129;30;8855;-93
2022/11/15 00:14:28;;;;;;;;;0.00;0.00;;;;;;;;4769339;30;8847;-95
2022/11/15 00:16:53;;;;;;;;;0.00;0.00;;;;;;;;4770141;30;8911;-95
2022/11/15 00:19:19;;;;;;;;;0.00;0.00;;;;;;;;4769055;30;8859;-95
2022/11/15 00:21:44;;;;;;;;;0.00;0.00;;;;;;;;4752882;30;8869;-95
2022/11/15 00:24:09;;;;;;;;;0.00;0.00;;;;;;;;4755441;30;8859;-95
2022/11/15 00:26:34;;;;;;;;;0.00;0.00;;;;;;;;4765311;30;8869;-95
2022/11/15 00:29:00;;;;;;;;;0.00;0.00;;;;;;;;4751073;30;8854;-95
2022/11/15 00:31:25;;;;;;;;;0.00;0.00;;;;;;;;4751026;30;8947;-95
2022/11/15 00:33:50;;;;;;;;;0.00;0.00;;;;;;;;4750962;30;8888;-94
2022/11/15 00:36:15;;;;;;;;;0.00;0.00;;;;;;;;4751289;30;8870;-95
2022/11/15 00:38:41;;;;;;;;;0.00;0.00;;;;;;;;4751034;30;8873;-95
2022/11/15 00:41:07;;;;;;;;;0.00;0.00;;;;;;;;4751263;30;8858;-94
2022/11/15 00:43:32;;;;;;;;;0.00;0.00;;;;;;;;4751160;30;8850;-94
2022/11/15 00:45:57;;;;;;;;;0.00;0.00;;;;;;;;4763606;30;8863;-95
2022/11/15 00:48:23;;;;;;;;;0.00;0.00;;;;;;;;4768624;30;8855;-94
2022/11/15 00:50:49;;;;;;;;;0.00;0.00;;;;;;;;4760415;30;8881;-95
2022/11/15 00:53:14;;;;;;;;;0.00;0.00;;;;;;;;4750540;30;8866;-95
2022/11/15 00:55:39;;;;;;;;;0.00;0.00;;;;;;;;4736004;30;8869;-94
2022/11/15 00:58:05;;;;;;;;;0.00;0.00;;;;;;;;4751120;30;8858;-95
2022/11/15 01:00:30;;;;;;;;;0.00;0.00;;;;;;;;4755209;30;8871;-94
2022/11/15 01:02:55;;;;;;;;;0.00;0.00;;;;;;;;4754561;30;8870;-95
2022/11/15 01:05:20;;;;;;;;;0.00;0.00;;;;;;;;4759103;30;8866;-94
2022/11/15 01:07:45;;;;;;;;;0.00;0.00;;;;;;;;4768707;30;8877;-95
2022/11/15 01:10:11;;;;;;;;;0.00;0.00;;;;;;;;4765971;30;8885;-95
2022/11/15 01:12:36;;;;;;;;;0.00;0.00;;;;;;;;4758830;30;8858;-95
2022/11/15 01:15:01;;;;;;;;;0.67;0.67;;;;;;;;4768770;30;8875;-94
2022/11/15 01:17:27;;;;;;;;;0.00;0.00;;;;;;;;4762131;30;8893;-95
2022/11/15 01:19:52;;;;;;;;;0.00;0.00;;;;;;;;4750912;30;8908;-95
2022/11/15 01:22:17;;;;;;;;;0.00;0.00;;;;;;;;4763175;30;8871;-94
2022/11/15 01:24:42;;;;;;;;;0.00;0.00;;;;;;;;4767747;30;8859;-94
2022/11/15 01:27:08;;;;;;;;;0.00;0.00;;;;;;;;4750179;30;8849;-93
2022/11/15 01:29:33;;;;;;;;;0.00;0.00;;;;;;;;4754515;30;8877;-95
2022/11/15 01:31:58;;;;;;;;;0.00;0.00;;;;;;;;4747323;30;9661;-95
2022/11/15 01:34:24;;;;;;;;;0.00;0.00;;;;;;;;4768519;30;8851;-95
2022/11/15 01:36:49;;;;;;;;;0.00;0.00;;;;;;;;4755452;30;8881;-95
2022/11/15 01:39:15;;;;;;;;;0.00;0.00;;;;;;;;4764501;30;8878;-95
2022/11/15 01:41:40;;;;;;;;;0.00;0.00;;;;;;;;4750134;30;8841;-95
2022/11/15 01:44:24;;;;;;;;;0.00;0.00;;;;;;;;4760700;30;8863;-95
2022/11/15 01:46:50;;;;;;;;;0.00;0.00;;;;;;;;4754933;30;8841;-95
2022/11/15 01:49:17;;;;;;;;;0.00;0.00;;;;;;;;4765865;30;8866;-93
2022/11/15 01:51:45;;;;;;;;;0.00;0.00;;;;;;;;4755409;30;8897;-95
2022/11/15 01:54:13;;;;;;;;;0.00;0.00;;;;;;;;4768302;30;8839;-96
2022/11/15 01:56:48;;;;;;;;;0.00;0.00;;;;;;;;4770703;29;8865;-94
2022/11/15 01:59:13;;;;;;;;;0.00;0.00;;;;;;;;4770776;29;8922;-96
2022/11/15 02:01:39;;;;;;;;;0.00;0.00;;;;;;;;4757469;30;8868;-95
2022/11/15 02:04:15;;;;;;;;;0.00;0.00;;;;;;;;4758635;29;8877;-95
2022/11/15 02:06:42;;;;;;;;;0.00;0.00;;;;;;;;4770404;29;8856;-95
2022/11/15 02:09:07;;;;;;;;;0.00;0.00;;;;;;;;4768216;29;8953;-94
2022/11/15 02:11:36;;;;;;;;;0.00;0.00;;;;;;;;4758333;29;9746;-96
2022/11/15 02:14:02;;;;;;;;;0.00;0.00;;;;;;;;4754653;30;8836;-95
2022/11/15 02:16:34;;;;;;;;;0.00;0.00;;;;;;;;4752758;30;8819;-94
2022/11/15 02:19:21;;;;;;;;;0.00;0.00;;;;;;;;4752821;30;8941;-94
2022/11/15 02:21:49;;;;;;;;;0.00;0.00;;;;;;;;4759006;30;8937;-95
2022/11/15 02:24:41;;;;;;;;;0.00;0.00;;;;;;;;4759602;30;8928;-95
2022/11/15 02:27:25;;;;;;;;;0.00;0.00;;;;;;;;4749039;29;8848;-94
2022/11/15 02:30:02;;;;;;;;;0.00;0.00;;;;;;;;4769619;29;8875;-95
2022/11/15 02:32:44;;;;;;;;;0.00;0.00;;;;;;;;4752980;30;8964;-95
2022/11/15 02:35:24;;;;;;;;;0.00;0.00;;;;;;;;4753020;30;8862;-95
2022/11/15 02:37:53;;;;;;;;;0.00;0.00;;;;;;;;4760971;29;8872;-94
2022/11/15 02:40:27;;;;;;;;;0.00;0.00;;;;;;;;4770233;29;8865;-95
2022/11/15 02:45:42;;;;;;;;;0.00;0.00;;;;;;;;4786581;29;8822;-95
2022/11/15 02:48:08;;;;;;;;;0.00;0.00;;;;;;;;4770553;29;8944;-95
2022/11/15 02:50:34;;;;;;;;;0.00;0.00;;;;;;;;4763412;30;8860;-95
2022/11/15 02:52:59;;;;;;;;;0.00;0.00;;;;;;;;4753892;29;8868;-95
2022/11/15 02:55:26;;;;;;;;;0.00;0.00;;;;;;;;4770439;29;8888;-96
2022/11/15 02:57:52;;;;;;;;;0.00;0.00;;;;;;;;4753683;29;8859;-95
2022/11/15 03:00:19;;;;;;;;;0.00;0.00;;;;;;;;4770052;29;8870;-95
2022/11/15 03:02:59;;;;;;;;;0.00;0.00;;;;;;;;4763795;30;8862;-95
2022/11/15 03:05:44;;;;;;;;;0.00;0.00;;;;;;;;4752852;30;8848;-95
2022/11/15 03:08:17;;;;;;;;;0.00;0.00;;;;;;;;4763240;29;8899;-96
2022/11/15 03:10:42;;;;;;;;;0.00;0.00;;;;;;;;4752353;30;8856;-96
2022/11/15 03:13:22;;;;;;;;;0.00;0.00;;;;;;;;4764600;29;8881;-94
2022/11/15 03:16:09;;;;;;;;;0.00;0.00;;;;;;;;4752965;30;8872;-95
2022/11/15 03:18:43;;;;;;;;;0.00;0.00;;;;;;;;4755837;30;8852;-95
2022/11/15 03:21:11;;;;;;;;;0.00;0.00;;;;;;;;4754867;30;8918;-96
2022/11/15 03:23:38;;;;;;;;;0.00;0.00;;;;;;;;4755502;30;9012;-95
2022/11/15 03:26:05;;;;;;;;;0.00;0.00;;;;;;;;4758663;29;8790;-95
2022/11/15 03:28:38;;;;;;;;;0.00;0.00;;;;;;;;4759728;30;8949;-95
2022/11/15 03:31:46;;;;;;;;;0.00;0.00;;;;;;;;4765399;29;9741;-95
2022/11/15 03:33:54;;;;;;;;;0.00;0.00;;;;;;;;4772605;29;8870;-95
2022/11/15 03:36:23;;;;;;;;;0.00;0.00;;;;;;;;4755151;30;8885;-95
2022/11/15 03:38:50;;;;;;;;;0.00;0.00;;;;;;;;4755700;30;8875;-95
2022/11/15 03:41:35;;;;;;;;;0.00;0.00;;;;;;;;4754468;30;8860;-96
2022/11/15 03:44:20;;;;;;;;;0.00;0.00;;;;;;;;4770126;29;8856;-96
2022/11/15 03:46:56;;;;;;;;;0.00;0.00;;;;;;;;4754233;30;8852;-94
2022/11/15 03:49:32;;;;;;;;;0.00;0.00;;;;;;;;4765233;30;8969;-95
2022/11/15 03:51:58;;;;;;;;;0.00;0.00;;;;;;;;4765279;30;8978;-95
2022/11/15 03:54:24;;;;;;;;;0.00;0.00;;;;;;;;4755152;30;8836;-94
2022/11/15 03:56:49;;;;;;;;;0.00;0.00;;;;;;;;4755064;30;8859;-93
2022/11/15 03:59:14;;;;;;;;;0.00;0.00;;;;;;;;4757885;29;8896;-95
2022/11/15 04:01:39;;;;;;;;;0.00;0.00;;;;;;;;4758765;30;8860;-95
2022/11/15 04:04:05;;;;;;;;;0.00;0.00;;;;;;;;4754992;30;8856;-95
2022/11/15 04:06:30;;;;;;;;;10.00;4.00;;;;;;;;4762226;29;8897;-95
2022/11/15 04:08:55;;;;;;;;;0.00;0.00;;;;;;;;4772376;29;8876;-95
2022/11/15 04:11:20;;;;;;;;;0.00;0.00;;;;;;;;4772327;29;8968;-96
2022/11/15 04:13:46;;;;;;;;;0.00;0.00;;;;;;;;4771772;29;8854;-95
2022/11/15 04:16:11;;;;;;;;;0.00;0.00;;;;;;;;4764015;30;8879;-95
2022/11/15 04:18:36;;;;;;;;;0.00;0.00;;;;;;;;4756820;30;8902;-95
2022/11/15 04:26:29;;;;;;;;;0.00;0.00;;;;;;;;4787265;29;8821;-95
2022/11/15 04:31:38;;;;;;;;;0.00;0.00;;;;;;;;4769926;30;8765;-94
2022/11/15 04:34:03;;;;;;;;;0.00;0.00;;;;;;;;4755451;30;8934;-96
2022/11/15 04:39:13;;;;;;;;;0.00;0.00;;;;;;;;4770357;29;8848;-95
2022/11/15 04:41:38;;;;;;;;;78.00;66.00;;;;;;;;4753947;30;8910;-94
2022/11/15 04:44:03;;;;;;;;;0.00;0.00;;;;;;;;4770663;30;8880;-95
2022/11/15 04:46:28;;;;;;;;;0.00;0.00;;;;;;;;4758532;29;8897;-95
2022/11/15 04:48:54;;;;;;;;;0.00;0.00;;;;;;;;4772122;29;8871;-95
2022/11/15 04:51:19;;;;;;;;;0.00;0.00;;;;;;;;4772056;29;8849;-94
2022/11/15 04:53:45;;;;;;;;;0.00;0.00;;;;;;;;4758722;30;8876;-96
2022/11/15 04:56:10;;;;;;;;;0.00;0.00;;;;;;;;4754439;30;8884;-94
2022/11/15 04:58:35;;;;;;;;;0.00;0.00;;;;;;;;4754513;30;8884;-94
2022/11/15 05:01:16;;;;;;;;;0.00;0.00;;;;;;;;4753722;30;8876;-95
2022/11/15 05:06:26;;;;;;;;;0.00;0.00;;;;;;;;4770326;30;8836;-94
2022/11/15 05:08:51;;;;;;;;;0.00;0.00;;;;;;;;4756224;30;8986;-95
2022/11/15 05:11:17;;;;;;;;;0.00;0.00;;;;;;;;4755606;30;8868;-94
2022/11/15 05:13:42;;;;;;;;;0.00;0.00;;;;;;;;4754206;30;8860;-94
2022/11/15 05:16:07;;;;;;;;;0.00;0.00;;;;;;;;4753926;30;8898;-94
2022/11/15 05:18:33;;;;;;;;;0.00;0.00;;;;;;;;4769137;30;8872;-95
2022/11/15 05:21:04;;;;;;;;;0.00;0.00;;;;;;;;4769014;30;8892;-95
2022/11/15 05:23:30;;;;;;;;;0.00;0.00;;;;;;;;4770346;30;8832;-95
2022/11/15 05:25:58;;;;;;;;;0.00;0.00;;;;;;;;4770792;30;8856;-94
2022/11/15 05:28:23;;;;;;;;;0.00;0.00;;;;;;;;4760135;30;9019;-95
2022/11/15 05:30:49;;;;;;;;;0.00;0.00;;;;;;;;4757956;30;8872;-94
2022/11/15 05:33:14;;;;;;;;;0.00;0.00;;;;;;;;4772965;30;8892;-95
2022/11/15 05:35:41;;;;;;;;;0.00;0.00;;;;;;;;4769518;30;8866;-94
2022/11/15 05:38:07;;;;;;;;;0.00;0.00;;;;;;;;4768952;30;8867;-94
2022/11/15 05:40:32;;;;;;;;;0.00;0.00;;;;;;;;4768000;30;8872;-94
2022/11/15 05:42:59;;;;;;;;;0.00;0.00;;;;;;;;4768828;30;8872;-94
2022/11/15 05:45:25;;;;;;;;;0.00;0.00;;;;;;;;4768633;29;8868;-95
2022/11/15 05:47:51;;;;;;;;;0.00;0.00;;;;;;;;4753365;30;8932;-95
2022/11/15 05:50:18;;;;;;;;;0.00;0.00;;;;;;;;4753297;30;8860;-94
2022/11/15 05:52:44;;;;;;;;;0.00;0.00;;;;;;;;4752900;30;8851;-94
2022/11/15 05:55:09;;;;;;;;;0.00;0.00;;;;;;;;4753528;30;8840;-95
2022/11/15 05:57:35;;;;;;;;;0.00;0.00;;;;;;;;4753168;30;9519;-94
2022/11/15 06:00:00;;;;;;;;;0.00;0.00;;;;;;;;4753213;30;9668;-94
2022/11/15 06:02:28;;;;;;;;;0.00;0.00;;;;;;;;4766554;29;8899;-95
2022/11/15 06:04:53;;;;;;;;;0.00;0.00;;;;;;;;4753540;30;8845;-94
2022/11/15 06:07:18;;;;;;;;;0.00;0.00;;;;;;;;4752878;30;8862;-95
2022/11/15 06:09:44;;;;;;;;;0.00;0.00;;;;;;;;4753237;30;8875;-94
2022/11/15 06:12:09;;;;;;;;;0.00;0.00;;;;;;;;4769163;30;8840;-94
2022/11/15 06:14:34;;;;;;;;;0.00;0.00;;;;;;;;4769334;29;8858;-95
2022/11/15 06:16:59;;;;;;;;;0.00;0.00;;;;;;;;4770058;29;8986;-93
2022/11/15 06:19:25;;;;;;;;;0.00;0.00;;;;;;;;4770883;29;8963;-95
2022/11/15 06:21:50;;;;;;;;;0.00;0.00;;;;;;;;4767227;30;8888;-94
2022/11/15 06:24:15;;;;;;;;;0.00;0.00;;;;;;;;4761903;29;8869;-95
2022/11/15 06:26:40;;;;;;;;;0.00;0.00;;;;;;;;4767043;29;8862;-93
2022/11/15 06:29:06;;;;;;;;;0.00;0.00;;;;;;;;4770158;29;8897;-94
2022/11/15 06:31:31;;;;;;;;;0.00;0.00;;;;;;;;4769170;29;8865;-93
2022/11/15 06:33:56;;;;;;;;;0.00;0.00;;;;;;;;4761734;30;8970;-94
2022/11/15 06:36:21;;;;;;;;;0.00;0.00;;;;;;;;4751960;30;8864;-94
2022/11/15 06:38:47;;;;;;;;;1.00;0.00;;;;;;;;4752295;30;9000;-94
2022/11/15 06:41:13;;;;;;;;;0.00;0.00;;;;;;;;4752011;30;8911;-94
2022/11/15 06:43:38;;;;;;;;;0.00;0.00;;;;;;;;4752238;30;8871;-94
2022/11/15 06:46:04;;;;;;;;;4.67;4.67;;;;;;;;4752007;30;8880;-94
2022/11/15 06:48:30;;;;;;;;;0.00;0.00;;;;;;;;4752497;30;8852;-94
2022/11/15 06:50:56;;;;;;;;;0.00;0.00;;;;;;;;4752903;30;8859;-92
2022/11/15 06:53:22;;;;;;;;;0.00;0.00;;;;;;;;4758314;30;8831;-94
2022/11/15 06:55:47;;;;;;;;;0.00;0.00;;;;;;;;4757637;30;8891;-93
2022/11/15 06:58:13;;;;;;;;;0.00;0.00;;;;;;;;4758015;30;8899;-93
2022/11/15 07:00:38;;;;;;;;;0.00;0.00;;;;;;;;4757376;30;8979;-93
2022/11/15 07:03:03;;;;;;;;;0.00;0.00;;;;;;;;4757997;30;10147;-93
2022/11/15 07:05:29;;;;;;;;;0.00;0.00;;;;;;;;4757498;30;8888;-93
2022/11/15 07:07:55;;;;;;;;;0.00;0.00;;;;;;;;4757868;30;8908;-94
2022/11/15 07:10:21;;;;;;;;;0.00;0.00;;;;;;;;4757893;30;9610;-94
2022/11/15 07:12:47;;;;;;;;;0.00;0.00;;;;;;;;4757552;30;8851;-93
2022/11/15 07:15:12;;;;;;;;;0.00;0.00;;;;;;;;4758024;30;8933;-94
2022/11/15 07:17:38;;;;;;;;;0.00;0.00;;;;;;;;4757533;30;8844;-94
2022/11/15 07:20:03;;;;;;;;;0.00;0.00;;;;;;;;4773463;30;8957;-93
2022/11/15 07:22:28;;;;;;;;;0.00;0.00;;;;;;;;4773128;30;8933;-95
2022/11/15 07:24:54;;;;;;;;;0.00;0.00;;;;;;;;4757856;30;8946;-91
2022/11/15 07:27:19;;;;;;;;;0.00;0.00;;;;;;;;4772021;29;8954;-91
2022/11/15 07:29:44;;;;;;;;;0.00;0.00;;;;;;;;4756208;30;8879;-89
2022/11/15 07:32:09;;;;;;;;;1.00;1.00;;;;;;;;4771435;30;8824;-85
2022/11/15 07:34:34;;;;;;;;;1.00;1.00;;;;;;;;4771803;30;8903;-87
2022/11/15 07:37:00;;;;;;;;;0.00;0.00;;;;;;;;4771607;30;8829;-85
2022/11/15 07:39:25;;;;;;;;;0.00;0.00;;;;;;;;4773752;29;9213;-86
2022/11/15 07:42:52;;;;;;;;;0.00;0.00;;;;;;;;4763448;29;8889;-87
2022/11/15 07:44:35;;;;;;;;;0.00;0.00;;;;;;;;4774712;29;9464;-87
2022/11/15 07:47:00;;;;;;;;;0.00;0.00;;;;;;;;4770730;29;8898;-87
2022/11/15 07:49:25;;;;;;;;;0.00;0.00;;;;;;;;4772545;30;9014;-87
2022/11/15 07:51:50;;;;;;;;;0.00;0.00;;;;;;;;4755055;30;8852;-86
2022/11/15 07:54:16;;;;;;;;;0.00;0.00;;;;;;;;4772145;30;9409;-87
2022/11/15 07:56:41;;;;;;;;;0.00;0.00;;;;;;;;4771451;30;8868;-87
2022/11/15 07:59:06;;;;;;;;;0.00;0.00;;;;;;;;4772194;30;8864;-87
2022/11/15 08:01:31;;;;;;;;;0.00;0.00;;;;;;;;4770318;30;9574;-86
2022/11/15 08:03:57;;;;;;;;;0.00;0.00;;;;;;;;4765844;29;8999;-87
2022/11/15 08:06:22;;;;;;;;;0.00;0.00;;;;;;;;4771671;29;8864;-87
2022/11/15 08:08:47;;;;;;;;;0.00;0.00;;;;;;;;4773136;29;8966;-87
2022/11/15 08:11:12;;;;;;;;;0.00;0.00;;;;;;;;4773638;29;9733;-86
2022/11/15 08:13:38;;;;;;;;;0.00;0.00;;;;;;;;4755767;29;8894;-87
2022/11/15 08:16:05;;;;;;;;;0.00;0.00;;;;;;;;4770776;29;8884;-86
2022/11/15 08:18:30;;;;;;;;;0.00;0.00;;;;;;;;4754668;29;9271;-86
2022/11/15 08:20:59;;;;;;;;;0.00;0.00;;;;;;;;4769089;29;8905;-87
2022/11/15 08:23:24;;;;;;;;;0.00;0.00;;;;;;;;4751507;30;8986;-86
2022/11/15 08:25:49;;;;;;;;;0.00;0.00;;;;;;;;4749445;30;8887;-87
2022/11/15 08:28:15;;;;;;;;;0.00;0.00;;;;;;;;4770653;29;8852;-88
2022/11/15 08:30:42;;;;;;;;;0.00;0.00;;;;;;;;4755522;30;9650;-90
2022/11/15 08:33:10;;;;;;;;;0.00;0.00;;;;;;;;4772871;29;8838;-89
2022/11/15 08:35:35;;;;;;;;;0.00;0.00;;;;;;;;4756912;29;9696;-88
2022/11/15 08:38:00;;;;;;;;;0.00;0.00;;;;;;;;4756304;29;8864;-90
2022/11/15 08:40:26;;;;;;;;;0.67;0.67;;;;;;;;4766323;29;8876;-88
2022/11/15 08:42:52;;;;;;;;;0.00;0.00;;;;;;;;4767933;29;8861;-86
2022/11/15 08:45:17;;;;;;;;;0.00;0.00;;;;;;;;4774461;29;8910;-86
2022/11/15 08:47:42;;;;;;;;;0.00;0.00;;;;;;;;4767571;29;8907;-85
2022/11/15 08:50:08;;;;;;;;;0.00;0.00;;;;;;;;4753512;29;8896;-86
2022/11/15 08:52:33;;;;;;;;;0.00;0.00;;;;;;;;4774877;29;8913;-86
2022/11/15 08:54:59;;;;;;;;;0.00;0.00;;;;;;;;4769533;29;9006;-86
2022/11/15 08:57:24;;;;;;;;;0.00;0.00;;;;;;;;4778524;29;8861;-85
2022/11/15 08:59:49;;;;;;;;;0.00;0.00;;;;;;;;4771720;29;8978;-85
2022/11/15 09:02:15;;;;;;;;;0.00;0.00;;;;;;;;4751606;30;8879;-85
2022/11/15 09:04:41;;;;;;;;;0.00;0.00;;;;;;;;4768261;29;8905;-86
2022/11/15 09:07:06;;;;;;;;;0.00;0.00;;;;;;;;4776786;29;8850;-86
2022/11/15 09:09:31;;;;;;;;;0.00;0.00;;;;;;;;4771950;29;9634;-85
2022/11/15 09:11:57;;;;;;;;;0.00;0.00;;;;;;;;4760062;30;9059;-84
2022/11/15 09:14:22;;;;;;;;;0.00;0.00;;;;;;;;4752330;30;8871;-84
2022/11/15 09:16:47;;;;;;;;;0.00;0.00;;;;;;;;4778425;29;8892;-84
2022/11/15 09:19:14;;;;;;;;;0.00;0.00;;;;;;;;4778218;29;8881;-84
2022/11/15 09:21:39;;;;;;;;;0.00;0.00;;;;;;;;4773865;29;8853;-85
2022/11/15 09:24:05;;;;;;;;;0.00;0.00;;;;;;;;4771050;29;11725;-84
2022/11/15 09:26:30;;;;;;;;;0.00;0.00;;;;;;;;4774679;29;8853;-85
2022/11/15 09:28:55;;;;;;;;;0.00;0.00;;;;;;;;4771852;29;8895;-85
2022/11/15 09:31:20;;;;;;;;;0.00;0.00;;;;;;;;4775005;29;8885;-85
2022/11/15 09:33:46;;;;;;;;;0.00;0.00;;;;;;;;4758529;29;8860;-85
2022/11/15 09:36:11;;;;;;;;;0.00;0.00;;;;;;;;4782134;29;8912;-85
2022/11/15 09:38:37;;;;;;;;;0.00;0.00;;;;;;;;4760540;29;8877;-86
2022/11/15 09:41:17;;;;;;;;;0.00;0.00;;;;;;;;4770952;29;8946;-85
2022/11/15 09:44:01;;;;;;;;;0.00;0.00;;;;;;;;4767217;29;8963;-86
2022/11/15 09:46:42;;;;;;;;;0.00;0.00;;;;;;;;4777071;29;11670;-85
2022/11/15 09:49:08;;;;;;;;;0.00;0.00;;;;;;;;4776057;29;11698;-85
2022/11/15 09:51:35;;;;;;;;;0.00;0.00;;;;;;;;4768876;29;11763;-85
2022/11/15 09:54:00;;;;;;;;;0.00;0.00;;;;;;;;4751028;30;8873;-86
2022/11/15 09:56:27;;;;;;;;;0.00;0.00;;;;;;;;4760891;29;11804;-86
2022/11/15 09:59:04;;;;;;;;;0.00;0.00;;;;;;;;4752269;30;10745;-85
2022/11/15 10:01:38;;;;;;;;;0.00;0.00;;;;;;;;4761772;29;45586;-85
2022/11/15 10:04:04;;;;;;;;;0.00;0.00;;;;;;;;4746196;29;45400;-85
2022/11/15 10:06:31;;;;;;;;;0.00;0.00;;;;;;;;4758876;29;28541;-85
2022/11/15 10:09:11;;;;;;;;;0.00;0.00;;;;;;;;4749536;30;27194;-87
2022/11/15 10:11:37;;;;;;;;;0.00;0.00;;;;;;;;4769388;29;8830;-84
2022/11/15 10:14:05;;;;;;;;;0.00;0.00;;;;;;;;4770293;29;9646;-87
2022/11/15 10:16:30;;;;;;;;;0.00;0.00;;;;;;;;4781696;29;8849;-91
2022/11/15 10:19:10;;;;;;;;;0.00;0.00;;;;;;;;4768959;29;8859;-89
2022/11/15 10:21:38;;;;;;;;;0.00;0.00;;;;;;;;4767303;29;25013;-90
2022/11/15 10:24:10;;;;;;;;;0.00;0.00;;;;;;;;4758112;29;30782;-89
2022/11/15 10:26:35;;;;;;;;;0.00;0.00;;;;;;;;4770181;29;8864;-92
2022/11/15 10:29:00;;;;;;;;;0.00;0.00;;;;;;;;4761246;30;24230;-91
2022/11/15 10:31:27;;;;;;;;;0.00;0.00;;;;;;;;4738665;29;28557;-94
2022/11/15 10:34:11;;;;;;;;;0.00;0.00;;;;;;;;4743992;29;44601;-93
2022/11/15 10:36:36;;;;;;;;;0.00;0.00;;;;;;;;4752372;29;22025;-95
2022/11/15 10:39:02;;;;;;;;;0.00;0.00;;;;;;;;4758188;30;8880;-92
2022/11/15 10:41:29;;;;;;;;;0.00;0.00;;;;;;;;4760667;29;8873;-92
2022/11/15 10:44:03;;;;;;;;;0.00;0.00;;;;;;;;4756625;29;8885;-95
2022/11/15 10:46:28;;;;;;;;;0.00;0.00;;;;;;;;4757526;29;26536;-90
2022/11/15 10:49:11;;;;;;;;;0.00;0.00;;;;;;;;4752442;30;28551;-90
2022/11/15 10:51:40;;;;;;;;;0.00;0.00;;;;;;;;4758857;29;8955;-91
2022/11/15 10:54:08;;;;;;;;;0.00;0.00;;;;;;;;4773336;29;9637;-92
2022/11/15 10:56:33;;;;;;;;;0.00;0.00;;;;;;;;4763918;29;11775;-91
2022/11/15 10:58:59;;;;;;;;;0.00;0.00;;;;;;;;4755258;29;8860;-92
2022/11/15 11:01:29;;;;;;;;;0.00;0.00;;;;;;;;4775619;29;8985;-92
2022/11/15 11:04:04;;;;;;;;;0.00;0.00;;;;;;;;4761729;29;27814;-92
2022/11/15 11:06:30;;;;;;;;;1.00;1.00;;;;;;;;4765574;29;28576;-92
2022/11/15 11:08:56;;;;;;;;;0.00;0.00;;;;;;;;4734726;30;28495;-93
2022/11/15 11:11:22;;;;;;;;;0.00;0.00;;;;;;;;4734437;30;28853;-92
2022/11/15 11:13:47;;;;;;;;;0.00;0.00;;;;;;;;4753994;29;28507;-91
2022/11/15 11:16:38;;;;;;;;;0.00;0.00;;;;;;;;4741151;30;28442;-89
2022/11/15 11:19:03;;;;;;;;;0.00;0.00;;;;;;;;4736138;30;28565;-94
2022/11/15 11:21:49;;;;;;;;;0.00;0.00;;;;;;;;4746699;29;28541;-96
2022/11/15 11:24:25;;;;;;;;;0.00;0.00;;;;;;;;4745173;30;42416;-91
2022/11/15 11:26:50;;;;;;;;;0.00;0.00;;;;;;;;4740320;29;29447;-91
2022/11/15 11:29:33;;;;;;;;;0.00;0.00;;;;;;;;4756071;29;28754;-90
2022/11/15 11:32:11;;;;;;;;;0.00;0.00;;;;;;;;4758603;29;28648;-90
2022/11/15 11:34:39;;;;;;;;;0.00;0.00;;;;;;;;4756979;29;29323;-95
2022/11/15 11:37:04;;;;;;;;;0.00;0.00;;;;;;;;4748410;29;28371;-87
2022/11/15 11:39:45;;;;;;;;;0.00;0.00;;;;;;;;4764796;29;27860;-86
2022/11/15 11:42:13;;;;;;;;;0.00;0.00;;;;;;;;4769632;29;27939;-87
2022/11/15 11:44:38;;;;;;;;;0.00;0.00;;;;;;;;4745751;29;40177;-87
2022/11/15 11:47:09;;;;;;;;;0.00;0.00;;;;;;;;4744344;29;29817;-90
2022/11/15 11:49:40;;;;;;;;;0.00;0.00;;;;;;;;4748853;29;44035;-91
2022/11/15 11:52:10;;;;;;;;;0.00;0.00;;;;;;;;4739517;29;28458;-91
2022/11/15 11:54:54;;;;;;;;;0.00;0.00;;;;;;;;4740383;29;30918;-94
2022/11/15 11:57:38;;;;;;;;;0.00;0.00;;;;;;;;4752355;29;28371;-96
2022/11/15 12:00:12;;;;;;;;;0.00;0.00;;;;;;;;4753664;29;29269;-95
2022/11/15 12:02:39;;;;;;;;;0.00;0.00;;;;;;;;4735820;30;28636;-92
2022/11/15 12:05:18;;;;;;;;;0.00;0.00;;;;;;;;4743743;29;29236;-96
2022/11/15 12:07:45;;;;;;;;;0.00;0.00;;;;;;;;4747020;29;28466;-94
2022/11/15 12:10:31;;;;;;;;;0.00;0.00;;;;;;;;4747308;29;28437;-94
2022/11/15 12:13:15;;;;;;;;;0.00;0.00;;;;;;;;4752118;29;28367;-96
2022/11/15 12:15:48;;;;;;;;;0.00;0.00;;;;;;;;4753005;29;28503;-92
2022/11/15 12:18:15;;;;;;;;;0.00;0.00;;;;;;;;4751645;29;28378;-90
2022/11/15 12:20:48;;;;;;;;;0.00;0.00;;;;;;;;4734957;29;28486;-95
2022/11/15 12:23:20;;;;;;;;;0.00;0.00;;;;;;;;4759817;29;28032;-96
2022/11/15 12:26:04;;;;;;;;;0.00;0.00;;;;;;;;4754434;29;44764;-91
2022/11/15 12:28:42;;;;;;;;;0.00;0.00;;;;;;;;4749057;29;28461;-94
2022/11/15 12:31:10;;;;;;;;;0.00;0.00;;;;;;;;4770622;29;27865;-96
2022/11/15 12:36:10;;;;;;;;;0.00;0.00;;;;;;;;5017883;24;28500;-96
2022/11/15 12:38:51;;;;;;;;;0.00;0.00;;;;;;;;4792777;29;27845;-96
2022/11/15 12:56:40;;;;;;;;;0.00;0.00;;;;;;;;5192450;24;29130;-96
2022/11/15 13:01:40;;;;;;;;;0.00;0.00;;;;;;;;4995923;24;27869;-96
2022/11/15 13:04:08;;;;;;;;;0.00;0.00;;;;;;;;4748317;29;45177;-96
2022/11/15 13:06:42;;;;;;;;;0.00;0.00;;;;;;;;4765956;29;29501;-96
2022/11/15 13:09:27;;;;;;;;;0.00;0.00;;;;;;;;4765801;29;27854;-96
2022/11/15 13:11:53;;;;;;;;;0.00;0.00;;;;;;;;4759862;29;27986;-96
2022/11/15 13:19:29;;;;;;;;;0.00;0.00;;;;;;;;4818207;24;28938;-89
2022/11/15 13:24:38;;;;;;;;;0.00;0.00;;;;;;;;4735059;30;28846;-89
2022/11/15 13:27:10;;;;;;;;;0.00;0.00;;;;;;;;4717865;30;29741;-90
2022/11/15 13:29:35;;;;;;;;;0.00;0.00;;;;;;;;4731603;30;28549;-89
2022/11/15 13:32:01;;;;;;;;;0.00;0.00;;;;;;;;4717357;30;28429;-89
2022/11/15 13:34:28;;;;;;;;;0.00;0.00;;;;;;;;4723274;30;28597;-88
2022/11/15 13:36:53;;;;;;;;;0.00;0.00;;;;;;;;4735301;30;29385;-89
2022/11/15 13:39:27;;;;;;;;;0.00;0.00;;;;;;;;4741882;30;28379;-89
2022/11/15 13:41:53;;;;;;;;;0.00;0.00;;;;;;;;4721591;30;28593;-89
2022/11/15 13:44:22;;;;;;;;;0.00;0.00;;;;;;;;4722921;30;28594;-89
2022/11/15 13:46:47;;;;;;;;;0.00;0.00;;;;;;;;4732821;30;30175;-96
2022/11/15 13:49:13;;;;;;;;;0.00;0.00;;;;;;;;4755595;29;27822;-96
2022/11/15 13:51:41;;;;;;;;;0.00;0.00;;;;;;;;4735761;30;28645;-96
2022/11/15 13:54:27;;;;;;;;;0.00;0.00;;;;;;;;4727631;30;28367;-96
2022/11/15 13:56:52;;;;;;;;;0.00;0.00;;;;;;;;4718075;30;29365;-96
2022/11/15 13:59:23;;;;;;;;;0.00;0.00;;;;;;;;4744928;30;28560;-96
2022/11/15 14:01:49;;;;;;;;;0.00;0.00;;;;;;;;4741629;30;27863;-96
2022/11/15 14:04:18;;;;;;;;;0.00;0.00;;;;;;;;4736000;30;28009;-95
2022/11/15 14:06:51;;;;;;;;;0.00;0.00;;;;;;;;4747261;30;28455;-95
2022/11/15 14:09:28;;;;;;;;;0.00;0.00;;;;;;;;4751251;30;8843;-95
2022/11/15 14:11:54;;;;;;;;;0.00;0.00;;;;;;;;4750473;30;11699;-90
2022/11/15 14:14:22;;;;;;;;;0.00;0.00;;;;;;;;4737562;30;11600;-90
2022/11/15 14:16:48;;;;;;;;;0.00;0.00;;;;;;;;4755908;30;11593;-92
2022/11/15 14:19:19;;;;;;;;;0.00;0.00;;;;;;;;4745127;30;11713;-92
2022/11/15 14:22:03;;;;;;;;;0.00;0.00;;;;;;;;4744034;30;11540;-92
2022/11/15 14:24:31;;;;;;;;;0.00;0.00;;;;;;;;4735752;30;11700;-92
2022/11/15 14:26:56;;;;;;;;;0.00;0.00;;;;;;;;4735265;30;11591;-93
2022/11/15 14:29:28;;;;;;;;;0.00;0.00;;;;;;;;4741204;30;11681;-92
2022/11/15 14:32:05;;;;;;;;;0.00;0.00;;;;;;;;4744273;30;8862;-91
2022/11/15 14:34:31;;;;;;;;;0.00;0.00;;;;;;;;4735376;30;11614;-90
2022/11/15 14:36:56;;;;;;;;;0.00;0.00;;;;;;;;4743451;30;11698;-91
2022/11/15 14:39:23;;;;;;;;;0.00;0.00;;;;;;;;4752076;30;11620;-89
2022/11/15 14:41:49;;;;;;;;;0.00;0.00;;;;;;;;4737971;30;9110;-92
2022/11/15 14:44:18;;;;;;;;;0.00;0.00;;;;;;;;4748644;30;11643;-90
2022/11/15 14:46:43;;;;;;;;;0.00;0.00;;;;;;;;4737090;30;8863;-91
2022/11/15 14:49:08;;;;;;;;;0.00;0.00;;;;;;;;4741573;30;11609;-91
2022/11/15 14:51:33;;;;;;;;;0.00;0.00;;;;;;;;4764539;30;9053;-92
2022/11/15 14:53:58;;;;;;;;;0.00;0.00;;;;;;;;4764226;30;8878;-88
2022/11/15 14:56:24;;;;;;;;;0.00;0.00;;;;;;;;4767334;30;8892;-88
2022/11/15 14:58:49;;;;;;;;;0.00;0.00;;;;;;;;4763798;30;8934;-88
2022/11/15 15:01:20;;;;;;;;;0.00;0.00;;;;;;;;4761467;30;8899;-90
2022/11/15 15:03:45;;;;;;;;;0.00;0.00;;;;;;;;4761224;30;8838;-87
2022/11/15 15:06:12;;;;;;;;;0.00;0.00;;;;;;;;4748114;30;11641;-92
2022/11/15 15:08:37;;;;;;;;;1.00;1.00;;;;;;;;4738897;30;8852;-89
2022/11/15 15:11:06;;;;;;;;;0.00;0.00;;;;;;;;4755549;30;8890;-91
2022/11/15 15:13:32;;;;;;;;;0.00;0.00;;;;;;;;4759714;30;8868;-90
2022/11/15 15:15:57;;;;;;;;;0.00;0.00;;;;;;;;4754869;30;11575;-90
2022/11/15 15:18:22;;;;;;;;;0.00;0.00;;;;;;;;4753207;30;8997;-92
2022/11/15 15:20:54;;;;;;;;;0.00;0.00;;;;;;;;4759541;30;8915;-91
2022/11/15 15:23:19;;;;;;;;;0.00;0.00;;;;;;;;4741916;30;8850;-92
2022/11/15 15:25:45;;;;;;;;;0.00;0.00;;;;;;;;4739375;30;11599;-92
2022/11/15 15:28:11;;;;;;;;;0.00;0.00;;;;;;;;4748094;30;8848;-94
2022/11/15 15:30:36;;;;;;;;;0.00;0.00;;;;;;;;4744796;29;8856;-92
2022/11/15 15:33:01;;;;;;;;;0.00;0.00;;;;;;;;4738783;30;8873;-93
2022/11/15 15:35:29;;;;;;;;;0.00;0.00;;;;;;;;4741750;30;8856;-94
2022/11/15 15:37:54;;;;;;;;;0.00;0.00;;;;;;;;4759250;30;8955;-94
2022/11/15 15:40:21;;;;;;;;;0.00;0.00;;;;;;;;4743288;30;11591;-93
2022/11/15 15:42:47;;;;;;;;;0.00;0.00;;;;;;;;4760100;30;8810;-94
2022/11/15 15:45:12;;;;;;;;;0.00;0.00;;;;;;;;4765983;30;11593;-94